Time;durP1;ratioP1;P1;durP2;ratioP2;P2;SDS_P1;SDS_P2;PMS_P1;PMS_P2;Temp;Humidity;BMP_temperature;BMP_pressure;BME280_temperature;BME280_humidity;BME280_pressure;Samples;Min_cycle;Max_cycle;Signal;HPM_P1;HPM_P2
2022/07/02 00:02:25;;;;;;;9.65;5.45;;;11.70;99.90;;;;;;5007505;28;20038;-60
2022/07/02 00:05:06;;;;;;;9.55;5.35;;;11.70;99.90;;;;;;4998070;28;20061;-60
2022/07/02 00:07:32;;;;;;;12.88;7.47;;;11.70;99.90;;;;;;5010906;28;20034;-60
2022/07/02 00:09:59;;;;;;;16.30;6.97;;;11.70;99.90;;;;;;5008908;28;20053;-60
2022/07/02 00:12:27;;;;;;;12.05;6.05;;;11.60;99.90;;;;;;5010558;28;20037;-60
2022/07/02 00:14:56;;;;;;;17.77;6.32;;;11.70;99.90;;;;;;5009104;28;20076;-60
2022/07/02 00:17:22;;;;;;;11.80;6.22;;;11.70;99.90;;;;;;5009913;28;20044;-61
2022/07/02 00:19:49;;;;;;;12.60;5.85;;;11.70;99.90;;;;;;5009035;28;20038;-61
2022/07/02 00:22:15;;;;;;;18.25;5.45;;;11.60;99.90;;;;;;5009396;28;20026;-60
2022/07/02 00:24:42;;;;;;;10.82;5.32;;;11.70;99.90;;;;;;5008319;28;20041;-61
2022/07/02 00:27:13;;;;;;;15.20;6.68;;;11.60;99.90;;;;;;5009074;28;20129;-61
2022/07/02 00:29:41;;;;;;;14.32;4.60;;;11.50;99.90;;;;;;4990780;28;20114;-61
2022/07/02 00:32:07;;;;;;;16.67;5.97;;;11.50;99.90;;;;;;4992217;28;20034;-61
2022/07/02 00:34:37;;;;;;;10.48;4.75;;;11.40;99.90;;;;;;5010201;28;20109;-60
2022/07/02 00:37:03;;;;;;;21.88;4.68;;;11.40;99.90;;;;;;5008581;28;20654;-60
2022/07/02 00:39:29;;;;;;;25.02;5.43;;;11.40;99.90;;;;;;5009437;28;20109;-60
2022/07/02 00:41:56;;;;;;;23.02;5.80;;;11.40;99.90;;;;;;5008557;28;20116;-60
2022/07/02 00:44:22;;;;;;;16.95;4.60;;;11.40;99.90;;;;;;5010248;28;20037;-61
2022/07/02 00:46:49;;;;;;;62.80;4.80;;;11.30;99.90;;;;;;5006958;28;20030;-60
2022/07/02 00:49:16;;;;;;;69.05;4.97;;;11.30;99.90;;;;;;5009209;28;20433;-60
2022/07/02 00:51:42;;;;;;;12.80;4.70;;;11.30;99.90;;;;;;5008275;28;20042;-60
2022/07/02 00:54:08;;;;;;;20.70;4.32;;;11.30;99.90;;;;;;5009353;28;20445;-60
2022/07/02 00:56:34;;;;;;;7.97;3.70;;;11.10;99.90;;;;;;5009061;28;20041;-61
2022/07/02 00:59:02;;;;;;;6.57;3.60;;;11.10;99.90;;;;;;5008390;28;20493;-61
2022/07/02 01:01:27;;;;;;;11.85;3.38;;;11.00;99.90;;;;;;5008017;28;20433;-60
2022/07/02 01:03:55;;;;;;;5.82;3.40;;;11.00;99.90;;;;;;5005953;28;20100;-61
2022/07/02 01:06:23;;;;;;;4.57;3.13;;;11.00;99.90;;;;;;5008777;28;20080;-60
2022/07/02 01:11:36;;;;;;;4.00;2.75;;;10.90;99.90;;;;;;5009790;28;20111;-61
2022/07/02 01:14:04;;;;;;;6.72;3.25;;;10.90;99.90;;;;;;5007452;28;20751;-60
2022/07/02 01:16:29;;;;;;;18.67;3.22;;;10.90;99.90;;;;;;5009742;28;20040;-60
2022/07/02 01:18:55;;;;;;;9.10;3.30;;;10.80;99.90;;;;;;5007186;28;20100;-61
2022/07/02 01:21:21;;;;;;;5.40;3.40;;;10.80;99.90;;;;;;5009559;28;20026;-60
2022/07/02 01:23:46;;;;;;;5.07;2.83;;;10.80;99.90;;;;;;5006609;28;20049;-60
2022/07/02 01:26:12;;;;;;;8.55;2.92;;;10.80;99.90;;;;;;5007203;28;20112;-60
2022/07/02 01:28:37;;;;;;;4.00;2.70;;;10.80;99.90;;;;;;5009427;28;20160;-60
2022/07/02 01:31:03;;;;;;;6.90;3.60;;;10.80;99.90;;;;;;5007645;28;20052;-60
2022/07/02 01:33:29;;;;;;;5.75;2.67;;;10.70;99.90;;;;;;5008120;28;20496;-61
2022/07/02 01:35:54;;;;;;;2.70;2.05;;;10.70;99.90;;;;;;5007626;28;20037;-60
2022/07/02 01:38:20;;;;;;;5.35;2.60;;;10.80;99.90;;;;;;5008961;28;20033;-60
2022/07/02 01:40:46;;;;;;;3.33;2.25;;;10.80;99.90;;;;;;5007346;28;20034;-61
2022/07/02 01:43:11;;;;;;;4.55;2.88;;;10.80;99.90;;;;;;5008631;28;20615;-60
2022/07/02 01:45:37;;;;;;;3.30;2.47;;;10.70;99.90;;;;;;5008478;28;20498;-60
2022/07/02 01:48:03;;;;;;;6.53;2.90;;;10.60;99.90;;;;;;5007359;28;20034;-60
2022/07/02 01:50:28;;;;;;;8.90;3.10;;;10.60;99.90;;;;;;5021151;28;20068;-60
2022/07/02 01:52:57;;;;;;;8.85;3.20;;;10.60;99.90;;;;;;5021804;28;20041;-60
2022/07/02 01:55:24;;;;;;;4.60;2.72;;;10.70;99.90;;;;;;5005466;28;20107;-60
2022/07/02 01:57:50;;;;;;;4.40;2.63;;;10.70;99.90;;;;;;5002140;28;20037;-61
2022/07/02 02:00:16;;;;;;;3.38;2.28;;;10.70;99.90;;;;;;5008900;28;20053;-60
2022/07/02 02:02:42;;;;;;;7.93;2.15;;;10.60;99.90;;;;;;5007792;28;20065;-60
2022/07/02 02:05:08;;;;;;;3.72;2.00;;;10.60;99.90;;;;;;5008347;28;20821;-60
2022/07/02 02:07:33;;;;;;;12.98;2.30;;;10.60;99.90;;;;;;5007668;28;20096;-60
2022/07/02 02:09:59;;;;;;;33.15;3.05;;;10.60;99.90;;;;;;5007459;28;20112;-60
2022/07/02 02:12:25;;;;;;;7.07;2.25;;;10.60;99.90;;;;;;5007122;28;20430;-60
2022/07/02 02:14:51;;;;;;;3.47;2.30;;;10.60;99.90;;;;;;5007052;28;20040;-60
2022/07/02 02:17:16;;;;;;;4.00;2.20;;;10.60;99.90;;;;;;5007350;28;20033;-60
2022/07/02 02:19:42;;;;;;;36.97;3.20;;;10.50;99.90;;;;;;5008779;28;20385;-60
2022/07/02 02:22:08;;;;;;;76.22;3.17;;;10.50;99.90;;;;;;5006272;28;20022;-60
2022/07/02 02:24:33;;;;;;;15.18;1.98;;;10.50;99.90;;;;;;5007011;28;20034;-60
2022/07/02 02:26:59;;;;;;;9.65;2.40;;;10.50;99.90;;;;;;5007070;28;20038;-60
2022/07/02 02:29:25;;;;;;;129.07;3.63;;;10.40;99.90;;;;;;5007799;28;20061;-60
2022/07/02 02:31:51;;;;;;;22.08;2.13;;;10.40;99.90;;;;;;5006782;28;20116;-60
2022/07/02 02:34:16;;;;;;;58.17;2.67;;;10.40;99.90;;;;;;5008692;28;20034;-60
2022/07/02 02:36:42;;;;;;;13.43;2.38;;;10.40;99.90;;;;;;5007548;28;20508;-61
2022/07/02 02:39:08;;;;;;;8.38;2.28;;;10.40;99.90;;;;;;5007675;28;20164;-60
2022/07/02 02:41:33;;;;;;;103.93;3.45;;;10.30;99.90;;;;;;5006930;28;20113;-60
2022/07/02 02:43:59;;;;;;;226.85;5.30;;;10.20;99.90;;;;;;5006754;28;20065;-60
2022/07/02 02:46:25;;;;;;;215.90;4.63;;;10.20;99.90;;;;;;5007563;28;20029;-60
2022/07/02 02:48:50;;;;;;;63.35;2.28;;;10.10;99.90;;;;;;5007859;28;20063;-60
2022/07/02 02:51:16;;;;;;;86.65;4.97;;;10.20;99.90;;;;;;5007605;28;20387;-60
2022/07/02 02:53:42;;;;;;;91.63;2.75;;;10.10;99.90;;;;;;5007044;28;20576;-60
2022/07/02 02:56:09;;;;;;;81.60;2.90;;;10.20;99.90;;;;;;5006486;28;20330;-60
2022/07/02 02:58:34;;;;;;;176.13;4.85;;;10.20;99.90;;;;;;5005547;28;20061;-60
2022/07/02 03:01:00;;;;;;;6.97;1.70;;;10.30;99.90;;;;;;5006457;28;20030;-61
2022/07/02 03:03:26;;;;;;;2.75;1.60;;;10.30;99.90;;;;;;5007449;28;20040;-60
2022/07/02 03:05:52;;;;;;;3.08;2.00;;;10.30;99.90;;;;;;5007945;28;20643;-60
2022/07/02 03:08:19;;;;;;;3.58;1.98;;;10.20;99.90;;;;;;5007605;28;20042;-60
2022/07/02 03:10:44;;;;;;;4.30;2.30;;;10.20;99.90;;;;;;5008316;28;20133;-60
2022/07/02 03:13:11;;;;;;;5.40;2.50;;;10.10;99.90;;;;;;5006176;28;20105;-60
2022/07/02 03:15:36;;;;;;;15.13;2.63;;;10.10;99.90;;;;;;5006034;28;20022;-60
2022/07/02 03:18:02;;;;;;;4.25;2.63;;;10.10;99.90;;;;;;5007268;28;20033;-60
2022/07/02 03:20:28;;;;;;;8.63;2.45;;;10.10;99.90;;;;;;5006816;28;20053;-60
2022/07/02 03:22:54;;;;;;;3.55;2.58;;;10.00;99.90;;;;;;5007225;28;20034;-61
2022/07/02 03:25:19;;;;;;;4.13;2.70;;;10.00;99.90;;;;;;5011106;28;20124;-60
2022/07/02 03:27:45;;;;;;;4.60;2.83;;;10.00;99.90;;;;;;5011855;28;20026;-60
2022/07/02 03:30:11;;;;;;;4.25;2.78;;;10.00;99.90;;;;;;5009883;28;20030;-60
2022/07/02 03:32:36;;;;;;;3.90;2.80;;;10.10;99.90;;;;;;5011643;28;20044;-60
2022/07/02 03:35:02;;;;;;;8.65;2.63;;;10.10;99.90;;;;;;5008795;28;20363;-60
2022/07/02 03:37:28;;;;;;;3.22;2.50;;;10.00;99.90;;;;;;5010898;28;20038;-60
2022/07/02 03:39:55;;;;;;;85.07;3.47;;;10.00;99.90;;;;;;5010300;28;20037;-60
2022/07/02 03:42:21;;;;;;;10.50;2.90;;;10.10;99.90;;;;;;5011556;28;20030;-60
2022/07/02 03:44:46;;;;;;;35.38;2.90;;;10.00;99.90;;;;;;5010434;28;20033;-60
2022/07/02 03:47:12;;;;;;;5.28;2.40;;;10.00;99.90;;;;;;5011048;28;20030;-60
2022/07/02 03:49:38;;;;;;;22.58;2.88;;;9.90;99.90;;;;;;5010304;28;20038;-60
2022/07/02 03:52:04;;;;;;;8.77;2.20;;;10.00;99.90;;;;;;5009555;28;20041;-60
2022/07/02 03:54:30;;;;;;;9.75;2.30;;;10.00;99.90;;;;;;5009703;28;20677;-60
2022/07/02 03:56:55;;;;;;;59.65;2.72;;;10.00;99.90;;;;;;5011682;28;20096;-60
2022/07/02 03:59:21;;;;;;;6.18;2.20;;;10.00;99.90;;;;;;5011181;28;20029;-60
2022/07/02 04:01:47;;;;;;;5.32;2.00;;;10.00;99.90;;;;;;5008430;28;20178;-60
2022/07/02 04:04:12;;;;;;;8.00;1.73;;;10.00;99.90;;;;;;5007011;28;20038;-60
2022/07/02 04:06:38;;;;;;;2.67;1.70;;;10.00;99.90;;;;;;5004273;28;20038;-60
2022/07/02 04:09:04;;;;;;;2.90;1.83;;;9.90;99.90;;;;;;5010248;28;20022;-60
2022/07/02 04:11:29;;;;;;;26.48;2.67;;;9.90;99.90;;;;;;5009678;28;20092;-61
2022/07/02 04:13:55;;;;;;;7.60;2.70;;;9.90;99.90;;;;;;5010360;28;20042;-60
2022/07/02 04:16:21;;;;;;;17.50;2.47;;;9.90;99.90;;;;;;5009097;28;20034;-61
2022/07/02 04:18:46;;;;;;;2.67;2.00;;;10.10;99.90;;;;;;5010581;28;20042;-61
2022/07/02 04:21:12;;;;;;;6.60;2.20;;;10.10;99.90;;;;;;5007628;28;20036;-60
2022/07/02 04:23:38;;;;;;;3.50;2.15;;;10.20;99.90;;;;;;5010550;28;20042;-60
2022/07/02 04:26:05;;;;;;;6.07;2.45;;;10.30;99.90;;;;;;5008780;28;20041;-60
2022/07/02 04:28:31;;;;;;;7.25;3.40;;;10.30;99.90;;;;;;5009258;28;20100;-60
2022/07/02 04:30:57;;;;;;;3.97;2.00;;;10.40;99.90;;;;;;5008146;28;20076;-60
2022/07/02 04:33:22;;;;;;;5.50;2.92;;;10.40;99.90;;;;;;5007924;28;20062;-60
2022/07/02 04:35:48;;;;;;;7.65;3.95;;;10.50;99.90;;;;;;5007937;28;20067;-60
2022/07/02 04:38:14;;;;;;;4.95;3.42;;;10.80;99.90;;;;;;5007980;28;20486;-60
2022/07/02 04:40:39;;;;;;;7.63;2.53;;;11.00;99.90;;;;;;5003951;28;20038;-60
2022/07/02 04:43:05;;;;;;;20.55;4.07;;;11.30;99.90;;;;;;5007828;28;20026;-60
2022/07/02 04:45:31;;;;;;;307.75;9.15;;;11.40;99.90;;;;;;5009372;28;20037;-60
2022/07/02 04:47:56;;;;;;;218.88;7.22;;;11.60;99.90;;;;;;5003847;28;20041;-60
2022/07/02 04:50:22;;;;;;;72.97;5.63;;;11.70;99.90;;;;;;5008825;28;20069;-60
2022/07/02 04:52:48;;;;;;;18.08;5.10;;;11.70;99.90;;;;;;5008313;28;20922;-60
2022/07/02 04:55:14;;;;;;;7.13;4.25;;;11.80;99.90;;;;;;5008591;28;20054;-60
2022/07/02 04:57:40;;;;;;;7.75;3.97;;;12.00;99.90;;;;;;5009090;28;20037;-60
2022/07/02 05:00:07;;;;;;;5.93;3.03;;;12.20;99.90;;;;;;5008444;28;20057;-60
2022/07/02 05:02:34;;;;;;;8.55;3.28;;;12.30;99.90;;;;;;5006925;28;20042;-60
2022/07/02 05:05:00;;;;;;;4.32;3.05;;;12.50;99.90;;;;;;5008286;28;20670;-60
2022/07/02 05:07:26;;;;;;;6.80;3.55;;;12.80;99.90;;;;;;5008921;28;20050;-60
2022/07/02 05:09:51;;;;;;;5.43;3.65;;;13.00;99.90;;;;;;5009627;28;20356;-60
2022/07/02 05:12:17;;;;;;;5.57;3.28;;;13.20;99.90;;;;;;5007383;28;20025;-60
2022/07/02 05:14:42;;;;;;;4.78;2.80;;;13.40;99.90;;;;;;5008922;28;20108;-60
2022/07/02 05:17:08;;;;;;;5.50;3.35;;;13.50;99.90;;;;;;5006218;28;20033;-62
2022/07/02 05:19:34;;;;;;;6.70;3.42;;;13.50;99.90;;;;;;5007196;28;20031;-62
2022/07/02 05:21:59;;;;;;;5.65;3.47;;;13.60;99.90;;;;;;5015018;28;20526;-62
2022/07/02 05:24:25;;;;;;;4.65;3.05;;;13.80;99.90;;;;;;5009207;28;20039;-62
2022/07/02 05:26:51;;;;;;;5.38;3.50;;;13.90;99.90;;;;;;5009234;28;20058;-62
2022/07/02 05:29:16;;;;;;;4.97;3.47;;;14.10;99.90;;;;;;5009505;28;20030;-62
2022/07/02 05:31:42;;;;;;;8.57;3.63;;;14.20;99.90;;;;;;5009519;28;20037;-62
2022/07/02 05:34:08;;;;;;;6.00;3.42;;;14.30;99.90;;;;;;5008589;28;20461;-62
2022/07/02 05:36:33;;;;;;;8.25;3.05;;;14.30;99.90;;;;;;5009225;28;20113;-63
2022/07/02 05:38:59;;;;;;;4.80;2.85;;;14.40;99.90;;;;;;5028378;28;20547;-62
2022/07/02 05:41:25;;;;;;;7.15;3.00;;;14.50;99.90;;;;;;5029092;28;20025;-62
2022/07/02 05:43:50;;;;;;;4.70;3.20;;;14.60;99.90;;;;;;5012737;28;20058;-62
2022/07/02 05:46:16;;;;;;;7.75;3.25;;;14.80;99.90;;;;;;5002615;28;20037;-63
2022/07/02 05:48:42;;;;;;;5.63;3.00;;;15.00;99.90;;;;;;5003886;28;20103;-64
2022/07/02 05:51:07;;;;;;;7.85;3.40;;;15.20;99.90;;;;;;5002470;28;20045;-63
2022/07/02 05:53:33;;;;;;;6.57;2.97;;;15.30;99.90;;;;;;5003898;28;20050;-63
2022/07/02 05:55:59;;;;;;;4.35;3.15;;;15.40;99.90;;;;;;5002699;28;20040;-63
2022/07/02 05:58:25;;;;;;;5.93;2.83;;;15.50;99.90;;;;;;5007351;28;20136;-63
2022/07/02 06:00:50;;;;;;;5.30;2.70;;;15.60;99.90;;;;;;5004285;28;20394;-63
2022/07/02 06:03:16;;;;;;;4.95;2.80;;;15.80;99.90;;;;;;5002288;28;20036;-63
2022/07/02 06:08:26;;;;;;;4.13;2.40;;;16.20;99.90;;;;;;5004269;28;20033;-66
2022/07/02 06:10:54;;;;;;;3.42;2.00;;;16.40;99.90;;;;;;5005785;28;20026;-66
2022/07/02 06:13:20;;;;;;;3.55;2.22;;;16.60;99.90;;;;;;5003218;28;20270;-67
2022/07/02 06:15:46;;;;;;;3.45;2.40;;;16.70;99.90;;;;;;5008220;28;20466;-68
2022/07/02 06:18:14;;;;;;;6.10;1.92;;;16.70;99.90;;;;;;5005675;28;20676;-66
2022/07/02 06:20:40;;;;;;;2.72;1.60;;;16.90;99.90;;;;;;5008794;28;20474;-65
2022/07/02 06:23:06;;;;;;;2.38;1.60;;;17.10;99.90;;;;;;5007962;28;20026;-65
2022/07/02 06:25:33;;;;;;;1.70;1.40;;;17.30;99.90;;;;;;5008595;28;20054;-65
2022/07/02 06:27:59;;;;;;;3.45;1.52;;;17.50;99.90;;;;;;5007631;28;20112;-65
2022/07/02 06:30:25;;;;;;;1.38;1.00;;;17.40;99.90;;;;;;5008292;28;20030;-66
2022/07/02 06:32:51;;;;;;;2.70;1.02;;;17.40;99.90;;;;;;5008788;28;20034;-66
2022/07/02 06:35:16;;;;;;;1.90;0.90;;;17.50;99.90;;;;;;5007883;28;20038;-66
2022/07/02 06:37:42;;;;;;;2.33;1.13;;;17.50;99.90;;;;;;5026487;28;20470;-66
2022/07/02 06:40:08;;;;;;;1.55;0.80;;;17.50;99.90;;;;;;5011033;28;20030;-65
2022/07/02 06:42:34;;;;;;;1.98;0.77;;;17.50;99.90;;;;;;5025021;28;20041;-65
2022/07/02 06:45:01;;;;;;;1.48;0.90;;;17.60;99.90;;;;;;5023805;28;20041;-67
2022/07/02 06:47:28;;;;;;;7.25;1.00;;;17.80;99.90;;;;;;5026988;28;20029;-63
2022/07/02 06:49:55;;;;;;;0.90;0.80;;;17.80;99.90;;;;;;5002017;28;20492;-65
2022/07/02 06:52:21;;;;;;;1.33;0.85;;;18.00;99.90;;;;;;5015169;28;20127;-65
2022/07/02 06:54:48;;;;;;;2.15;0.90;;;18.20;99.90;;;;;;5027970;28;20080;-65
2022/07/02 06:57:13;;;;;;;3.75;1.17;;;18.40;99.90;;;;;;5008949;28;20095;-65
2022/07/02 06:59:39;;;;;;;0.82;0.82;;;18.60;99.90;;;;;;5007419;28;20033;-65
2022/07/02 07:02:06;;;;;;;1.13;0.80;;;18.60;99.90;;;;;;5013697;28;20455;-64
2022/07/02 07:04:33;;;;;;;7.60;1.10;;;18.80;99.90;;;;;;5010074;28;20038;-65
2022/07/02 07:07:00;;;;;;;1.02;0.90;;;19.10;99.90;;;;;;5029689;28;20719;-65
2022/07/02 07:09:27;;;;;;;1.35;0.90;;;19.20;99.90;;;;;;5023679;28;20056;-65
2022/07/02 07:11:54;;;;;;;1.67;1.10;;;19.20;99.90;;;;;;5031889;28;20363;-65
2022/07/02 07:14:20;;;;;;;1.52;1.00;;;19.20;99.90;;;;;;5023287;28;20117;-65
2022/07/02 07:16:46;;;;;;;1.70;0.82;;;19.30;99.90;;;;;;5011759;28;20032;-66
2022/07/02 07:19:12;;;;;;;1.65;1.10;;;19.40;99.90;;;;;;5010771;28;20037;-64
2022/07/02 07:21:39;;;;;;;1.85;0.88;;;19.50;99.90;;;;;;5011955;28;20034;-64
2022/07/02 07:24:06;;;;;;;2.10;1.13;;;19.70;99.90;;;;;;5025103;28;20048;-62
2022/07/02 07:26:33;;;;;;;1.33;0.93;;;19.80;99.90;;;;;;5012925;28;20138;-64
2022/07/02 07:29:00;;;;;;;14.55;1.13;;;19.80;99.90;;;;;;5022530;28;20539;-67
2022/07/02 07:31:27;;;;;;;1.63;0.75;;;19.80;99.90;;;;;;5024430;28;20075;-65
2022/07/02 07:33:54;;;;;;;2.92;1.10;;;19.90;99.90;;;;;;5022667;28;20040;-65
2022/07/02 07:36:22;;;;;;;1.52;0.98;;;19.90;99.90;;;;;;5030504;28;20052;-65
2022/07/02 07:38:49;;;;;;;2.83;0.88;;;19.90;99.90;;;;;;5025861;28;20035;-66
2022/07/02 07:41:15;;;;;;;2.10;0.88;;;20.00;99.90;;;;;;5030232;28;20036;-64
2022/07/02 07:43:41;;;;;;;2.40;0.90;;;20.10;99.90;;;;;;5025690;28;20482;-64
2022/07/02 07:46:07;;;;;;;2.88;0.73;;;20.10;99.90;;;;;;5030873;28;20199;-63
2022/07/02 07:48:33;;;;;;;1.55;0.80;;;20.20;99.90;;;;;;5017896;28;20040;-64
2022/07/02 07:50:59;;;;;;;2.08;0.90;;;20.30;99.90;;;;;;5009570;28;20478;-67
2022/07/02 07:53:25;;;;;;;1.35;0.80;;;20.40;99.90;;;;;;5021270;28;20799;-66
2022/07/02 07:55:51;;;;;;;2.97;1.10;;;20.60;99.90;;;;;;5010400;28;20084;-67
2022/07/02 07:58:17;;;;;;;2.15;0.90;;;20.80;99.90;;;;;;5029077;28;20029;-66
2022/07/02 08:00:43;;;;;;;2.03;0.90;;;21.00;99.90;;;;;;5026298;28;20044;-66
2022/07/02 08:03:10;;;;;;;2.45;0.90;;;21.00;99.90;;;;;;5030603;28;20018;-64
2022/07/02 08:05:36;;;;;;;1.30;0.88;;;21.00;99.90;;;;;;5028140;28;20084;-66
2022/07/02 08:08:02;;;;;;;1.92;1.02;;;21.00;99.90;;;;;;5026368;28;20134;-66
2022/07/02 08:10:28;;;;;;;2.63;0.93;;;21.20;99.90;;;;;;5011736;28;20627;-66
2022/07/02 08:12:53;;;;;;;2.08;1.00;;;21.30;99.90;;;;;;5015934;28;20029;-66
2022/07/02 08:15:19;;;;;;;1.52;0.90;;;21.20;99.90;;;;;;5025188;28;20610;-66
2022/07/02 08:17:45;;;;;;;1.50;0.90;;;21.00;99.90;;;;;;5018497;28;20459;-66
2022/07/02 08:20:12;;;;;;;1.30;1.08;;;21.10;99.90;;;;;;5029760;28;20029;-64
2022/07/02 08:22:38;;;;;;;4.55;0.93;;;21.30;99.90;;;;;;5029261;28;20030;-66
2022/07/02 08:25:06;;;;;;;1.98;1.10;;;21.50;99.90;;;;;;5020505;28;20482;-66
2022/07/02 08:27:31;;;;;;;1.40;1.05;;;21.50;99.90;;;;;;5008981;28;20034;-66
2022/07/02 08:29:58;;;;;;;2.95;0.80;;;21.40;99.90;;;;;;5027419;28;20025;-66
2022/07/02 08:32:25;;;;;;;2.15;0.70;;;21.40;99.90;;;;;;5027488;28;20032;-66
2022/07/02 08:34:51;;;;;;;1.00;0.90;;;21.50;99.90;;;;;;5017924;28;20597;-67
2022/07/02 08:37:17;;;;;;;1.45;0.90;;;21.50;99.90;;;;;;5020673;28;20036;-66
2022/07/02 08:39:43;;;;;;;1.38;0.70;;;21.50;99.90;;;;;;5021006;28;20026;-66
2022/07/02 08:42:29;;;;;;;1.00;0.80;;;21.60;99.90;;;;;;5019567;28;20032;-64
2022/07/02 08:44:58;;;;;;;3.08;1.00;;;21.70;99.90;;;;;;5030345;28;20087;-66
2022/07/02 08:47:25;;;;;;;1.80;0.85;;;21.80;99.90;;;;;;5026910;28;20079;-67
2022/07/02 08:49:52;;;;;;;5.78;1.10;;;21.70;99.90;;;;;;5030262;28;20060;-66
2022/07/02 08:52:20;;;;;;;3.90;1.17;;;21.70;99.90;;;;;;5022633;28;20112;-67
2022/07/02 08:54:46;;;;;;;8.43;1.30;;;21.80;99.90;;;;;;5017492;28;20049;-67
2022/07/02 08:57:50;;;;;;;2.15;0.90;;;21.70;99.90;;;;;;5020452;28;20125;-64
2022/07/02 09:00:19;;;;;;;0.75;0.75;;;21.80;99.90;;;;;;5029267;28;20029;-67
2022/07/02 09:02:48;;;;;;;4.82;1.05;;;22.10;99.90;;;;;;5024077;28;20036;-68
2022/07/02 09:05:16;;;;;;;3.83;1.10;;;22.20;99.90;;;;;;5029141;28;20037;-67
2022/07/02 09:07:45;;;;;;;1.80;1.10;;;22.20;99.90;;;;;;5013560;28;20361;-67
2022/07/02 09:10:11;;;;;;;1.92;1.00;;;22.30;99.90;;;;;;5007988;28;20037;-66
2022/07/02 09:12:39;;;;;;;2.38;0.80;;;22.40;99.90;;;;;;5009619;28;20034;-67
2022/07/02 09:15:06;;;;;;;1.38;0.80;;;22.50;99.90;;;;;;5024676;28;20087;-67
2022/07/02 09:17:33;;;;;;;1.60;0.70;;;22.60;98.60;;;;;;5026167;28;20037;-69
2022/07/02 09:19:59;;;;;;;1.30;0.90;;;22.70;99.60;;;;;;5029163;28;20029;-69
2022/07/02 09:22:34;;;;;;;1.25;0.80;;;22.70;99.90;;;;;;5027313;28;20113;-68
2022/07/02 09:25:08;;;;;;;0.95;0.68;;;22.70;99.20;;;;;;5011469;28;20052;-69
2022/07/02 09:27:34;;;;;;;5.40;2.05;;;22.70;99.10;;;;;;5020141;28;20654;-69
2022/07/02 09:30:00;;;;;;;1.13;0.68;;;22.70;96.60;;;;;;5028992;28;20390;-67
2022/07/02 09:32:25;;;;;;;3.00;1.10;;;22.70;98.50;;;;;;5025888;28;20032;-66
2022/07/02 09:34:53;;;;;;;3.55;1.00;;;22.50;99.60;;;;;;5017372;28;20141;-69
2022/07/02 09:37:23;;;;;;;2.85;1.23;;;22.60;99.90;;;;;;5025046;28;20044;-69
2022/07/02 09:39:51;;;;;;;1.80;1.00;;;22.70;99.90;;;;;;5010844;28;20034;-65
2022/07/02 09:42:30;;;;;;;2.35;0.90;;;22.60;99.80;;;;;;5008956;28;20033;-67
2022/07/02 09:44:57;;;;;;;3.42;0.82;;;22.60;96.40;;;;;;5027583;28;20049;-67
2022/07/02 09:47:48;;;;;;;5.15;0.88;;;22.40;94.60;;;;;;5026014;28;20525;-67
2022/07/02 09:50:16;;;;;;;4.63;1.08;;;22.60;94.40;;;;;;5027411;28;20046;-65
2022/07/02 09:52:53;;;;;;;1.75;0.90;;;22.80;95.10;;;;;;5024591;28;20040;-66
2022/07/02 09:55:22;;;;;;;5.55;1.00;;;22.80;92.80;;;;;;5019387;28;20057;-67
2022/07/02 09:57:56;;;;;;;1.45;0.90;;;22.80;95.80;;;;;;5022261;28;20517;-66
2022/07/02 10:00:24;;;;;;;2.03;1.00;;;22.80;95.20;;;;;;5008341;28;20048;-66
2022/07/02 10:02:51;;;;;;;4.05;1.33;;;22.90;95.20;;;;;;5008465;28;20543;-68
2022/07/02 10:05:23;;;;;;;5.30;1.00;;;23.10;93.50;;;;;;5007649;28;20044;-64
2022/07/02 10:07:51;;;;;;;2.78;0.90;;;23.30;92.40;;;;;;5026214;28;20044;-66
2022/07/02 10:10:19;;;;;;;3.00;0.82;;;23.10;91.80;;;;;;5019678;28;20040;-64
2022/07/02 10:12:46;;;;;;;2.15;1.10;;;23.10;92.00;;;;;;5003707;28;20430;-65
2022/07/02 10:15:18;;;;;;;2.45;1.00;;;23.40;92.60;;;;;;5003761;28;20477;-66
2022/07/02 10:17:44;;;;;;;1.48;1.00;;;23.40;91.50;;;;;;5004067;28;20108;-64
2022/07/02 10:20:10;;;;;;;3.17;0.93;;;23.50;90.80;;;;;;5010146;28;20033;-65
2022/07/02 10:22:35;;;;;;;2.03;0.93;;;23.60;87.90;;;;;;5023329;28;20029;-64
2022/07/02 10:25:04;;;;;;;3.20;0.90;;;23.60;91.00;;;;;;5010976;28;20050;-65
2022/07/02 10:27:30;;;;;;;1.83;0.90;;;24.00;90.50;;;;;;5012865;28;20038;-65
2022/07/02 10:29:57;;;;;;;4.20;1.00;;;23.80;88.80;;;;;;5024957;28;20053;-65
2022/07/02 10:32:56;;;;;;;1.02;0.90;;;23.70;85.70;;;;;;5021366;28;20033;-65
2022/07/02 10:35:23;;;;;;;0.85;0.73;;;23.60;87.80;;;;;;5011764;28;20038;-65
2022/07/02 10:37:56;;;;;;;1.15;0.77;;;23.80;90.00;;;;;;5014007;28;20390;-65
2022/07/02 10:40:22;;;;;;;1.35;0.90;;;24.20;86.80;;;;;;5009141;28;20029;-65
2022/07/02 10:42:49;;;;;;;2.65;1.10;;;24.20;86.70;;;;;;5009797;28;20383;-65
2022/07/02 10:45:19;;;;;;;2.33;1.15;;;24.50;84.30;;;;;;5009487;28;20056;-64
2022/07/02 10:48:04;;;;;;;5.93;0.80;;;24.50;83.70;;;;;;5012876;28;20026;-69
2022/07/02 10:50:39;;;;;;;1.23;1.00;;;24.40;77.80;;;;;;5008610;28;20037;-66
2022/07/02 10:53:21;;;;;;;1.75;1.00;;;24.40;77.60;;;;;;5010493;28;20026;-65
2022/07/02 10:55:53;;;;;;;3.33;0.93;;;24.30;80.20;;;;;;5007784;28;20104;-64
2022/07/02 10:58:24;;;;;;;1.20;0.82;;;24.30;77.20;;;;;;5016693;28;20091;-61
2022/07/02 11:00:51;;;;;;;1.88;0.70;;;24.40;79.20;;;;;;5011683;28;20438;-62
2022/07/02 11:03:18;;;;;;;1.58;0.85;;;24.50;77.30;;;;;;5012084;28;20024;-62
2022/07/02 11:05:57;;;;;;;3.90;1.08;;;24.70;81.00;;;;;;5011526;28;20030;-63
2022/07/02 11:08:49;;;;;;;3.25;1.02;;;25.00;81.20;;;;;;5012769;28;20033;-62
2022/07/02 11:11:45;;;;;;;1.70;0.80;;;24.70;76.40;;;;;;5012698;28;20041;-62
2022/07/02 11:14:16;;;;;;;2.67;1.35;;;24.60;78.70;;;;;;5007326;28;20048;-64
2022/07/02 11:16:47;;;;;;;2.10;1.08;;;24.60;77.20;;;;;;5009297;28;20038;-64
2022/07/02 11:19:19;;;;;;;;;;;24.70;76.40;;;;;;5009713;28;20064;-64
2022/07/02 11:21:46;;;;;;;1.77;0.82;;;24.80;81.90;;;;;;5007663;28;20000;-64
2022/07/02 11:24:19;;;;;;;2.28;0.85;;;25.00;80.60;;;;;;5010934;28;20029;-66
2022/07/02 11:26:45;;;;;;;1.13;0.80;;;24.80;77.60;;;;;;5010176;28;20164;-64
2022/07/02 11:29:12;;;;;;;2.85;1.00;;;24.70;79.10;;;;;;5013894;28;20516;-64
2022/07/02 11:31:42;;;;;;;2.30;0.80;;;24.80;79.30;;;;;;5008919;28;20818;-66
2022/07/02 11:34:08;;;;;;;3.40;0.80;;;25.00;76.80;;;;;;5010429;28;20188;-64
2022/07/02 11:36:37;;;;;;;1.52;1.00;;;24.80;75.20;;;;;;5008525;28;20493;-65
2022/07/02 11:39:14;;;;;;;1.63;0.85;;;24.90;81.90;;;;;;5011675;28;20069;-65
2022/07/02 11:41:40;;;;;;;2.17;0.93;;;24.80;80.50;;;;;;5007137;28;20600;-66
2022/07/02 11:44:26;;;;;;;2.17;0.90;;;25.00;77.50;;;;;;5009426;28;20030;-66
2022/07/02 11:46:54;;;;;;;5.38;0.98;;;25.00;78.50;;;;;;5009566;28;20126;-66
2022/07/02 11:49:22;;;;;;;2.60;0.80;;;25.30;74.80;;;;;;5006127;28;20030;-64
2022/07/02 11:51:48;;;;;;;0.82;0.80;;;25.40;79.10;;;;;;5010254;28;20038;-68
2022/07/02 11:54:15;;;;;;;3.08;0.98;;;25.30;77.50;;;;;;5006656;28;20062;-65
2022/07/02 11:56:43;;;;;;;1.13;0.90;;;25.30;82.20;;;;;;5008482;28;20041;-65
2022/07/02 11:59:10;;;;;;;2.47;0.70;;;25.20;84.50;;;;;;5011717;28;20030;-65
2022/07/02 12:01:37;;;;;;;1.00;0.77;;;25.10;76.60;;;;;;5009380;28;20034;-68
2022/07/02 12:04:05;;;;;;;1.27;0.80;;;25.00;74.40;;;;;;5007028;28;20034;-64
2022/07/02 12:06:42;;;;;;;2.70;0.70;;;24.90;80.30;;;;;;5010048;28;20026;-68
2022/07/02 12:09:15;;;;;;;10.45;1.10;;;25.00;78.10;;;;;;5010336;28;20038;-64
2022/07/02 12:11:44;;;;;;;1.02;0.80;;;24.90;82.30;;;;;;5010687;28;20620;-64
2022/07/02 12:14:11;;;;;;;1.42;1.00;;;25.00;82.30;;;;;;5007002;28;20065;-68
2022/07/02 12:16:39;;;;;;;1.83;1.00;;;25.30;80.50;;;;;;5004013;28;20034;-64
2022/07/02 12:19:13;;;;;;;1.80;1.10;;;25.40;78.40;;;;;;5008629;28;20030;-64
2022/07/02 12:21:40;;;;;;;1.58;1.00;;;25.10;80.50;;;;;;5009760;28;20041;-66
2022/07/02 12:24:21;;;;;;;3.10;1.00;;;25.00;80.90;;;;;;5006151;28;20061;-64
2022/07/02 12:27:01;;;;;;;6.70;1.85;;;25.20;82.00;;;;;;5007787;28;20042;-64
2022/07/02 12:29:53;;;;;;;6.22;1.80;;;25.50;81.60;;;;;;4990567;28;20101;-63
2022/07/02 12:32:51;;;;;;;1.35;1.10;;;26.10;82.50;;;;;;5000088;28;20034;-63
2022/07/02 12:35:16;;;;;;;1.55;1.10;;;25.90;77.70;;;;;;5008198;28;20102;-68
2022/07/02 12:37:43;;;;;;;1.15;1.00;;;25.90;79.90;;;;;;5008106;28;20050;-64
2022/07/02 12:40:16;;;;;;;2.17;1.35;;;25.60;74.80;;;;;;5006365;28;20049;-64
2022/07/02 12:42:54;;;;;;;1.70;1.15;;;25.40;78.30;;;;;;5008611;28;20406;-64
2022/07/02 12:45:31;;;;;;;3.08;0.90;;;25.60;79.20;;;;;;5008033;28;20064;-63
2022/07/02 12:48:02;;;;;;;1.83;1.10;;;25.90;77.30;;;;;;5009294;28;20136;-64
2022/07/02 12:50:30;;;;;;;5.38;1.50;;;26.00;79.80;;;;;;5008302;28;20026;-65
2022/07/02 12:53:01;;;;;;;1.55;1.17;;;26.10;76.50;;;;;;5009194;28;20029;-64
2022/07/02 12:55:36;;;;;;;7.20;1.60;;;26.10;77.20;;;;;;5006658;28;20057;-63